Погода Приднепровскаяна 2 недели

Смоленская область, Россия

25 мая-06 июня
  • 25мая
    Сегодня
    +9°
    +23°
    Ясно и безоблачно
    ВремяПогодаТемператураВлажностьДавлениеВетер, м/сВероятность осадков
    00:00Ясно и безоблачно+10°C59 %757 мм2.3 м/с2 %
    03:00Ясно и безоблачно+7°C71 %757 мм2.5 м/с2 %
    06:00Ясно и безоблачно+9°C70 %757 мм1.8 м/с2 %
    09:00Ясно и безоблачно+16°C54 %757 мм1.6 м/с2 %
    12:00Ясно и безоблачно+21°C40 %756 мм1.8 м/с2 %
    15:00Ясно и безоблачно+23°C37 %755 мм2.4 м/с2 %
    18:00Ясно и безоблачно+23°C39 %754 мм1.7 м/с2 %
    21:00Ясно и безоблачно+17°C57 %754 мм2.2 м/с2 %
  • 26мая
    Воскресенье
    +12°
    +25°
    Практически безоблачно
    ВремяПогодаТемператураВлажностьДавлениеВетер, м/сВероятность осадков
    00:00Ясно и безоблачно+12°C75 %754 мм2.5 м/с2 %
    03:00Ясно и безоблачно+10°C79 %754 мм2.3 м/с2 %
    06:00Ясно и безоблачно+12°C78 %754 мм2.1 м/с2 %
    09:00Ясно и безоблачно+19°C60 %754 мм1.1 м/с2 %
    12:00Практически безоблачно+23°C40 %754 мм1.4 м/с2 %
    15:00Практически безоблачно+25°C38 %753 мм1.3 м/с2 %
    18:00Практически безоблачно+24°C39 %752 мм2.0 м/с6 %
    21:00Практически безоблачно+18°C62 %752 мм2.2 м/с3 %
  • 27мая
    Понедельник
    +12°
    +24°
    Практически безоблачно
    ВремяПогодаТемператураВлажностьДавлениеВетер, м/сВероятность осадков
    00:00Ясно и безоблачно+15°C72 %753 мм2.1 м/с2 %
    03:00Ясно и безоблачно+13°C86 %753 мм2.3 м/с2 %
    06:00Ясно и безоблачно+14°C91 %754 мм2.8 м/с2 %
    09:00Ясно и безоблачно+19°C71 %754 мм2.6 м/с2 %
    12:00Практически безоблачно+23°C56 %754 мм2.4 м/с22 %
    15:00Практически безоблачно+24°C52 %754 мм1.7 м/с32 %
    18:00Практически безоблачно+23°C49 %753 мм1.8 м/с39 %
    21:00Ясно и безоблачно+18°C71 %752 мм2.3 м/с4 %
  • 28мая
    Вторник
    +11°
    +25°
    Небольшая облачность
    ВремяПогодаТемператураВлажностьДавлениеВетер, м/сВероятность осадков
    00:00Ясно и безоблачно+15°C80 %752 мм2.0 м/с2 %
    03:00Ясно и безоблачно+13°C86 %752 мм2.2 м/с2 %
    06:00Ясно и безоблачно+14°C82 %752 мм1.7 м/с2 %
    09:00Ясно и безоблачно+20°C64 %752 мм1.3 м/с2 %
    12:00Ясно и безоблачно+24°C45 %752 мм2.4 м/с4 %
    15:00Небольшая облачность+24°C40 %751 мм2.5 м/с14 %
    18:00Небольшая облачность+24°C40 %750 мм1.6 м/с21 %
    21:00Практически безоблачно+17°C61 %750 мм2.6 м/с4 %
Мы используем cookies
Соглашаюсь